Current | Forecast
Updated: 7:30 AM EEST on June 23, 2017
Observed at Gostomel, Belarus
Temperature 63°F
Humidity 59%
Dew Point 48°F
Wind South at 7 mph
Pressure 29.80 in (Steady)
Conditions Clear
Visibility -
UV N/A
Clouds
Yesterday's Maximum 73°F
Yesterday's Minimum 54°F approx.
Yesterday's Heating Degree Days 2 approx.
Sunrise4:41 AM +03
Sunset9:19 PM +03
Moon Rise4:22 AM +03
Moon Set8:18 PM +03
Moon PhaseMoon Phase
Waning Crescent
Raw METARMETAR UKKM 230430Z 18003MPS CAVOK 17/09 Q1009


Monday
. High: 64° F.
Tuesday
. High: 66° F.
Wednesday
. High: 69° F.
Thursday
. High: 71° F.
Friday
. High: 62° F.
Saturday
. High: 64° F.
Sunday
. High: 66° F.
Monday
. High: 75° F.

Units: English | Metric

Find the Weather for any City, State or Zipcode, or Country:

U.S. State List | Severe Weather | Tropical Storms | Ski Conditions
United States | Canada | Central America | South America | Asia | Europe | Australia | Africa | Islands

Weather Underground

© Copyright 2017
The Weather Company, LLC